createdAt,value
2023-04-07T00:01:30.469Z,49.60
2023-04-07T00:03:58.932Z,49.60
2023-04-07T00:06:27.471Z,49.60
2023-04-07T00:08:56.725Z,49.60
2023-04-07T00:11:24.582Z,49.60
2023-04-07T00:13:52.944Z,49.60
2023-04-07T00:16:21.089Z,49.60
2023-04-07T00:18:49.002Z,49.60
2023-04-07T00:21:16.858Z,49.60
2023-04-07T00:23:44.906Z,49.60
2023-04-07T00:26:14.106Z,49.60
2023-04-07T00:28:42.360Z,49.60
2023-04-07T00:31:12.702Z,49.60
2023-04-07T00:33:40.585Z,50.20
2023-04-07T00:36:09.144Z,49.60
2023-04-07T00:38:37.005Z,49.60
2023-04-07T00:41:04.911Z,49.60
2023-04-07T00:43:34.201Z,49.60
2023-04-07T00:46:02.258Z,49.60
2023-04-07T00:48:30.925Z,49.60
2023-04-07T00:50:58.841Z,49.60
2023-04-07T00:53:26.744Z,49.60
2023-04-07T00:55:54.664Z,49.60
2023-04-07T00:58:22.518Z,49.70
2023-04-07T01:01:00.832Z,49.70
2023-04-07T01:03:34.916Z,49.60
2023-04-07T01:06:06.758Z,49.70
2023-04-07T01:08:43.220Z,49.70
2023-04-07T01:11:18.901Z,49.70
2023-04-07T01:13:51.026Z,49.60
2023-04-07T01:16:25.508Z,49.70
2023-04-07T01:18:56.670Z,49.70
2023-04-07T01:21:28.661Z,49.70
2023-04-07T01:24:11.390Z,49.60
2023-04-07T01:26:40.526Z,49.70
2023-04-07T01:29:31.218Z,49.70
2023-04-07T01:32:01.282Z,49.70
2023-04-07T01:34:32.354Z,50.40
2023-04-07T01:37:03.002Z,49.70
2023-04-07T01:39:31.183Z,49.70
2023-04-07T01:42:02.285Z,49.80
2023-04-07T01:44:33.514Z,49.70
2023-04-07T01:47:02.201Z,49.70
2023-04-07T01:49:31.879Z,49.70
2023-04-07T01:52:00.665Z,49.70
2023-04-07T01:54:29.449Z,49.70
2023-04-07T01:56:57.653Z,49.80
2023-04-07T01:59:26.813Z,49.80
2023-04-07T02:01:56.355Z,49.70
2023-04-07T02:04:32.008Z,49.70
2023-04-07T02:07:04.302Z,49.80
2023-04-07T02:09:34.320Z,49.80
2023-04-07T02:12:04.726Z,50.40
2023-04-07T02:14:33.749Z,49.80
2023-04-07T02:17:04.935Z,49.80
2023-04-07T02:19:34.643Z,49.80
2023-04-07T02:22:04.688Z,49.80
2023-04-07T02:24:32.650Z,49.80
2023-04-07T02:27:02.197Z,49.80
2023-04-07T02:29:30.336Z,49.80
2023-04-07T02:31:58.314Z,49.80
2023-04-07T02:34:27.546Z,49.80
2023-04-07T02:36:55.578Z,49.80
2023-04-07T02:39:23.494Z,50.40
2023-04-07T02:41:51.365Z,49.80
2023-04-07T02:44:19.260Z,49.80
2023-04-07T02:46:47.113Z,49.80
2023-04-07T02:49:14.999Z,49.80
2023-04-07T02:51:44.192Z,49.80
2023-04-07T02:54:12.049Z,49.80
2023-04-07T02:56:39.921Z,49.80
2023-04-07T02:59:07.785Z,49.80
2023-04-07T03:01:36.421Z,49.80
2023-04-07T03:04:04.557Z,49.80
2023-04-07T03:06:33.524Z,49.80
2023-04-07T03:09:02.902Z,49.80
2023-04-07T03:11:30.813Z,49.90
2023-04-07T03:13:58.721Z,49.80
2023-04-07T03:16:27.116Z,49.80
2023-04-07T03:18:55.056Z,49.80
2023-04-07T03:21:22.963Z,49.90
2023-04-07T03:23:51.036Z,49.80
2023-04-07T03:26:20.294Z,49.90
2023-04-07T03:28:48.132Z,49.80
2023-04-07T03:31:16.189Z,49.90
2023-04-07T03:33:44.146Z,49.80
2023-04-07T03:36:12.113Z,49.90
2023-04-07T03:38:40.021Z,49.80
2023-04-07T03:41:07.998Z,49.90
2023-04-07T03:43:37.233Z,49.90
2023-04-07T03:46:05.370Z,49.90
2023-04-07T03:48:33.251Z,49.90
2023-04-07T03:51:01.698Z,49.90
2023-04-07T03:53:29.712Z,49.90
2023-04-07T03:55:57.617Z,49.90
2023-04-07T03:58:25.552Z,49.90
2023-04-07T04:00:54.901Z,49.90
2023-04-07T04:03:22.884Z,49.90
2023-04-07T04:05:51.081Z,49.90
2023-04-07T04:08:19.013Z,49.90
2023-04-07T04:10:46.869Z,49.90
2023-04-07T04:13:14.716Z,49.90
2023-04-07T04:15:42.573Z,49.90
2023-04-07T04:18:11.848Z,49.90
2023-04-07T04:20:39.898Z,49.90
2023-04-07T04:23:07.951Z,49.90
2023-04-07T04:25:35.912Z,49.90
2023-04-07T04:28:03.778Z,49.90
2023-04-07T04:30:31.704Z,49.90
2023-04-07T04:32:59.697Z,49.90
2023-04-07T04:35:28.954Z,49.90
2023-04-07T04:37:56.888Z,49.90
2023-04-07T04:40:24.731Z,49.90
2023-04-07T04:42:52.736Z,49.90
2023-04-07T04:45:20.622Z,49.90
2023-04-07T04:47:48.527Z,49.90
2023-04-07T04:50:16.379Z,49.90
2023-04-07T04:52:45.675Z,49.90
2023-04-07T04:55:14.566Z,49.90
2023-04-07T04:57:42.630Z,49.90
2023-04-07T05:00:11.640Z,49.90
2023-04-07T05:02:39.714Z,50.00
2023-04-07T05:05:08.628Z,50.00
2023-04-07T05:07:37.207Z,50.00
2023-04-07T05:10:07.741Z,50.00
2023-04-07T05:12:35.704Z,50.00
2023-04-07T05:15:03.634Z,50.00
2023-04-07T05:17:31.553Z,50.00
2023-04-07T05:19:59.391Z,50.00
2023-04-07T05:22:27.235Z,50.00
2023-04-07T05:24:55.659Z,50.00
2023-04-07T05:27:24.861Z,50.00
2023-04-07T05:29:52.801Z,50.00
2023-04-07T05:32:21.050Z,50.00
2023-04-07T05:34:49.188Z,50.00
2023-04-07T05:37:17.114Z,50.00
2023-04-07T05:39:44.952Z,50.00
2023-04-07T05:42:12.812Z,50.00
2023-04-07T05:44:41.997Z,50.00
2023-04-07T05:47:11.346Z,50.00
2023-04-07T05:49:45.754Z,50.00
2023-04-07T05:52:13.827Z,50.00
2023-04-07T05:54:42.024Z,50.00
2023-04-07T05:57:10.123Z,50.00
2023-04-07T05:59:38.083Z,50.00
2023-04-07T06:02:07.402Z,50.00
2023-04-07T06:04:35.510Z,50.00
2023-04-07T06:07:03.791Z,50.00
2023-04-07T06:09:31.707Z,50.00
2023-04-07T06:12:01.228Z,50.10
2023-04-07T06:14:29.094Z,50.00
2023-04-07T06:16:57.042Z,50.10
2023-04-07T06:19:27.476Z,50.10
2023-04-07T06:21:55.547Z,50.10
2023-04-07T06:24:25.213Z,50.10
2023-04-07T06:26:53.417Z,50.10
2023-04-07T06:29:21.589Z,50.10
2023-04-07T06:31:49.470Z,50.10
2023-04-07T06:34:17.747Z,50.10
2023-04-07T06:36:47.071Z,50.10
2023-04-07T06:39:14.921Z,50.10
2023-04-07T06:41:43.686Z,50.00
2023-04-07T06:44:12.699Z,50.10
2023-04-07T06:46:41.719Z,50.00
2023-04-07T06:49:09.900Z,50.10
2023-04-07T06:51:37.805Z,50.10
2023-04-07T06:54:12.728Z,50.10
2023-04-07T06:56:40.743Z,50.00
2023-04-07T06:59:08.596Z,50.00
2023-04-07T07:01:37.812Z,50.00
2023-04-07T07:04:07.060Z,50.00
2023-04-07T07:06:34.982Z,50.00
2023-04-07T07:09:03.931Z,50.10
2023-04-07T07:11:33.222Z,50.00
2023-04-07T07:14:01.267Z,50.10
2023-04-07T07:16:29.095Z,50.00
2023-04-07T07:18:56.984Z,50.00
2023-04-07T07:21:24.907Z,50.00
2023-04-07T07:23:53.022Z,50.10
2023-04-07T07:26:21.003Z,50.10
2023-04-07T07:28:50.443Z,50.10
2023-04-07T07:31:18.856Z,50.10
2023-04-07T07:33:49.205Z,50.00
2023-04-07T07:36:17.288Z,50.10
2023-04-07T07:38:45.301Z,50.10
2023-04-07T07:41:13.168Z,50.20
2023-04-07T07:43:41.090Z,50.10
2023-04-07T07:46:10.661Z,50.10
2023-04-07T07:48:38.567Z,50.10
2023-04-07T07:51:06.586Z,50.10
2023-04-07T07:53:34.535Z,50.10
2023-04-07T07:56:02.466Z,50.10
2023-04-07T07:58:30.320Z,50.20
2023-04-07T08:00:58.258Z,50.20
2023-04-07T08:03:27.683Z,50.10
2023-04-07T08:05:56.006Z,50.20
2023-04-07T08:08:23.869Z,50.10
2023-04-07T08:10:51.717Z,50.10
2023-04-07T08:13:19.605Z,50.20
2023-04-07T08:15:47.543Z,50.20
2023-04-07T08:18:15.431Z,50.10
2023-04-07T08:20:44.664Z,50.20
2023-04-07T08:23:12.537Z,50.10
2023-04-07T08:25:40.987Z,50.20
2023-04-07T08:28:08.886Z,50.20
2023-04-07T08:30:36.814Z,50.20
2023-04-07T08:33:06.689Z,50.20
2023-04-07T08:35:34.734Z,50.20
2023-04-07T08:38:04.068Z,50.20
2023-04-07T08:40:33.470Z,50.20
2023-04-07T08:43:02.202Z,50.20
2023-04-07T08:45:32.656Z,50.20
2023-04-07T08:48:04.052Z,50.20
2023-04-07T08:50:33.254Z,50.20
2023-04-07T08:53:07.241Z,50.20
2023-04-07T08:55:36.786Z,50.20
2023-04-07T08:58:05.267Z,50.20
2023-04-07T09:00:33.471Z,50.20
2023-04-07T09:03:03.476Z,50.20
2023-04-07T09:05:32.265Z,50.30
2023-04-07T09:08:00.215Z,50.20
2023-04-07T09:10:29.466Z,50.30
2023-04-07T09:12:58.871Z,50.20
2023-04-07T09:15:30.560Z,50.20
2023-04-07T09:17:59.273Z,50.30
2023-04-07T09:20:27.492Z,50.30
2023-04-07T09:22:56.441Z,50.30
2023-04-07T09:25:27.235Z,50.30
2023-04-07T09:27:58.478Z,50.30
2023-04-07T09:30:27.254Z,50.30
2023-04-07T09:32:55.393Z,50.30
2023-04-07T09:35:24.802Z,50.30
2023-04-07T09:38:07.459Z,50.30
2023-04-07T09:40:36.471Z,50.30
2023-04-07T09:43:15.643Z,50.30
2023-04-07T09:45:43.641Z,50.30
2023-04-07T09:48:21.579Z,50.30
2023-04-07T09:50:51.033Z,50.30
2023-04-07T09:53:19.251Z,50.30
2023-04-07T09:55:47.937Z,50.30
2023-04-07T09:58:17.374Z,50.30
2023-04-07T10:00:46.752Z,50.30
2023-04-07T10:03:16.315Z,50.30
2023-04-07T10:05:45.508Z,50.30
2023-04-07T10:08:13.463Z,50.30
2023-04-07T10:10:43.874Z,50.30
2023-04-07T10:13:12.535Z,50.30
2023-04-07T10:15:42.085Z,50.30
2023-04-07T10:18:10.869Z,50.30
2023-04-07T10:20:41.614Z,50.40
2023-04-07T10:23:17.730Z,50.30
2023-04-07T10:25:48.856Z,50.30
2023-04-07T10:28:18.218Z,50.30
2023-04-07T10:30:49.768Z,50.30
2023-04-07T10:33:18.509Z,50.40
2023-04-07T10:36:06.041Z,50.30
2023-04-07T10:38:34.175Z,50.30
2023-04-07T10:41:02.165Z,50.30
2023-04-07T10:43:39.772Z,50.40
2023-04-07T10:46:09.087Z,50.40
2023-04-07T10:48:37.223Z,50.40
2023-04-07T10:51:16.597Z,50.40
2023-04-07T10:54:26.310Z,50.40
2023-04-07T10:57:14.927Z,50.50
2023-04-07T11:00:16.115Z,50.40
2023-04-07T11:02:45.696Z,50.40
2023-04-07T11:05:23.962Z,50.40
2023-04-07T11:07:57.617Z,50.40
2023-04-07T11:10:25.573Z,50.40
2023-04-07T11:13:04.620Z,50.40
2023-04-07T11:15:34.002Z,50.40
2023-04-07T11:18:11.686Z,50.40
2023-04-07T11:20:45.993Z,50.40
2023-04-07T11:23:14.767Z,50.40
2023-04-07T11:25:44.901Z,50.40
2023-04-07T11:28:14.529Z,50.40
2023-04-07T11:30:47.409Z,50.40
2023-04-07T11:33:20.617Z,50.40
2023-04-07T11:35:52.949Z,50.40
2023-04-07T11:38:22.082Z,50.40
2023-04-07T11:40:50.230Z,50.40
2023-04-07T11:43:22.764Z,50.40
2023-04-07T11:46:08.033Z,50.40
2023-04-07T11:48:38.520Z,50.40
2023-04-07T11:51:06.932Z,50.40
2023-04-07T11:53:35.946Z,50.40
2023-04-07T11:56:05.262Z,50.40
2023-04-07T11:58:33.251Z,50.40
2023-04-07T12:01:05.873Z,50.40
2023-04-07T12:03:37.402Z,50.40
2023-04-07T12:06:07.132Z,50.40
2023-04-07T12:08:39.727Z,50.40
2023-04-07T12:11:09.252Z,50.40
2023-04-07T12:13:37.520Z,50.40
2023-04-07T12:16:08.396Z,50.40
2023-04-07T12:18:36.525Z,50.40
2023-04-07T12:21:06.298Z,50.40
2023-04-07T12:23:34.260Z,50.40
2023-04-07T12:26:02.317Z,50.40
2023-04-07T12:28:30.264Z,50.40
2023-04-07T12:30:58.802Z,50.40
2023-04-07T12:33:26.827Z,50.40
2023-04-07T12:35:54.888Z,50.40
2023-04-07T12:38:24.156Z,50.40
2023-04-07T12:40:53.005Z,50.50
2023-04-07T12:43:20.905Z,50.40
2023-04-07T12:45:48.873Z,50.40
2023-04-07T12:48:18.679Z,50.40
2023-04-07T12:50:46.734Z,50.40
2023-04-07T12:53:14.614Z,50.40
2023-04-07T12:55:43.808Z,50.40
2023-04-07T12:58:11.728Z,50.40
2023-04-07T13:00:39.598Z,50.50
2023-04-07T13:03:07.670Z,50.50
2023-04-07T13:05:35.738Z,50.50
2023-04-07T13:08:03.730Z,50.50
2023-04-07T13:10:31.831Z,50.50
2023-04-07T13:13:01.081Z,50.50
2023-04-07T13:15:29.232Z,50.50
2023-04-07T13:17:57.193Z,50.50
2023-04-07T13:20:28.038Z,50.50
2023-04-07T13:25:28.660Z,50.50
2023-04-07T13:27:56.527Z,50.50
2023-04-07T13:30:25.827Z,50.50
2023-04-07T13:32:54.158Z,50.50
2023-04-07T13:35:22.356Z,50.50
2023-04-07T13:37:50.358Z,50.50
2023-04-07T13:40:18.458Z,50.70
2023-04-07T13:42:46.931Z,50.50
2023-04-07T13:45:14.879Z,50.60
2023-04-07T13:47:44.126Z,50.60
2023-04-07T13:50:12.061Z,50.60
2023-04-07T13:52:39.962Z,50.60
2023-04-07T13:55:08.654Z,50.70
2023-04-07T13:57:36.579Z,50.60
2023-04-07T14:00:04.903Z,50.70
2023-04-07T14:02:32.934Z,50.70
2023-04-07T14:05:02.284Z,50.70
2023-04-07T14:07:30.123Z,50.70
2023-04-07T14:09:58.452Z,50.70
2023-04-07T14:12:26.490Z,50.60
2023-04-07T14:14:54.892Z,50.70
2023-04-07T14:17:22.762Z,50.70
2023-04-07T14:19:50.937Z,50.70
2023-04-07T14:22:20.280Z,50.70
2023-04-07T14:24:48.145Z,50.70
2023-04-07T14:27:20.799Z,50.70
2023-04-07T14:29:48.879Z,50.70
2023-04-07T14:32:17.315Z,50.70
2023-04-07T14:34:45.202Z,50.70
2023-04-07T14:37:14.051Z,50.70
2023-04-07T14:39:55.355Z,50.70
2023-04-07T14:42:30.711Z,50.70
2023-04-07T14:44:59.952Z,50.70
2023-04-07T14:47:27.898Z,50.70
2023-04-07T14:49:55.854Z,50.70
2023-04-07T14:52:23.805Z,50.70
2023-04-07T14:54:52.983Z,50.70
2023-04-07T14:57:20.868Z,50.70
2023-04-07T14:59:48.764Z,50.70
2023-04-07T15:02:17.002Z,50.70
2023-04-07T15:04:45.151Z,50.70
2023-04-07T15:07:13.379Z,50.70
2023-04-07T15:09:41.304Z,50.70
2023-04-07T15:12:10.547Z,50.70
2023-04-07T15:14:38.442Z,50.70
2023-04-07T15:17:06.309Z,50.70
2023-04-07T15:19:34.135Z,50.70
2023-04-07T15:22:02.055Z,50.70
2023-04-07T15:24:30.001Z,50.70
2023-04-07T15:26:57.954Z,50.70
2023-04-07T15:29:27.193Z,50.70
2023-04-07T15:31:55.093Z,50.70
2023-04-07T15:34:22.980Z,50.70
2023-04-07T15:36:51.527Z,50.70
2023-04-07T15:39:19.397Z,50.70
2023-04-07T15:41:47.254Z,50.70
2023-04-07T15:44:18.928Z,50.70
2023-04-07T15:46:48.638Z,50.80
2023-04-07T15:49:20.273Z,50.70
2023-04-07T15:51:48.146Z,50.80
2023-04-07T15:54:16.141Z,50.70
2023-04-07T15:56:43.983Z,50.70
2023-04-07T15:59:11.817Z,50.80
2023-04-07T16:01:39.851Z,50.70
2023-04-07T16:04:09.196Z,50.80
2023-04-07T16:06:37.154Z,50.70
2023-04-07T16:09:05.310Z,50.70
2023-04-07T16:11:33.180Z,50.80
2023-04-07T16:14:01.130Z,50.80
2023-04-07T16:16:29.025Z,50.80
2023-04-07T16:18:57.153Z,50.80
2023-04-07T16:21:27.346Z,50.80
2023-04-07T16:23:55.988Z,50.80
2023-04-07T16:26:24.068Z,50.80
2023-04-07T16:28:52.089Z,50.80
2023-04-07T16:31:23.210Z,50.80
2023-04-07T16:33:58.504Z,50.80
2023-04-07T16:36:32.888Z,50.80
2023-04-07T16:39:00.846Z,50.80
2023-04-07T16:41:28.718Z,50.90
2023-04-07T16:43:57.033Z,50.90
2023-04-07T16:46:26.775Z,50.80
2023-04-07T16:48:55.146Z,50.80
2023-04-07T16:51:27.059Z,50.90
2023-04-07T16:53:56.387Z,50.80
2023-04-07T16:56:25.998Z,50.80
2023-04-07T16:58:54.054Z,50.80
2023-04-07T17:01:23.917Z,50.80
2023-04-07T17:03:52.491Z,50.80
2023-04-07T17:06:20.794Z,50.80
2023-04-07T17:08:49.602Z,50.80
2023-04-07T17:11:18.912Z,50.80
2023-04-07T17:13:47.870Z,50.80
2023-04-07T17:16:15.922Z,50.80
2023-04-07T17:18:43.923Z,50.80
2023-04-07T17:21:12.187Z,50.80
2023-04-07T17:23:40.086Z,50.80
2023-04-07T17:26:08.137Z,50.80
2023-04-07T17:28:37.400Z,50.80
2023-04-07T17:31:05.510Z,50.80
2023-04-07T17:33:33.485Z,50.80
2023-04-07T17:36:02.760Z,50.80
2023-04-07T17:38:30.611Z,50.80
2023-04-07T17:40:59.320Z,50.80
2023-04-07T17:43:27.216Z,50.80
2023-04-07T17:45:56.570Z,50.80
2023-04-07T17:48:24.664Z,50.80
2023-04-07T17:50:52.535Z,50.80
2023-04-07T17:53:20.622Z,50.90
2023-04-07T17:55:48.501Z,50.90
2023-04-07T17:58:16.442Z,50.80
2023-04-07T18:00:44.386Z,50.80
2023-04-07T18:03:14.561Z,50.80
2023-04-07T18:05:44.829Z,50.80
2023-04-07T18:08:13.209Z,50.90
2023-04-07T18:10:41.369Z,50.80
2023-04-07T18:13:09.430Z,50.80
2023-04-07T18:15:37.809Z,50.90
2023-04-07T18:18:06.165Z,50.80
2023-04-07T18:20:36.112Z,50.80
2023-04-07T18:23:03.978Z,50.90
2023-04-07T18:25:32.094Z,50.90
2023-04-07T18:28:01.849Z,50.80
2023-04-07T18:30:29.713Z,50.90
2023-04-07T18:32:57.779Z,50.90
2023-04-07T18:35:26.258Z,50.90
2023-04-07T18:37:55.991Z,50.90
2023-04-07T18:40:24.588Z,50.90
2023-04-07T18:42:52.863Z,50.90
2023-04-07T18:45:21.823Z,50.90
2023-04-07T18:47:49.683Z,50.90
2023-04-07T18:50:18.164Z,50.90
2023-04-07T18:52:46.044Z,50.90
2023-04-07T18:55:15.244Z,50.90
2023-04-07T18:57:43.115Z,50.90
2023-04-07T19:00:11.832Z,50.90
2023-04-07T19:02:44.255Z,50.90
2023-04-07T19:05:12.676Z,50.90
2023-04-07T19:07:40.629Z,50.90
2023-04-07T19:10:09.748Z,50.90
2023-04-07T19:12:40.138Z,50.90
2023-04-07T19:15:09.092Z,50.90
2023-04-07T19:17:37.655Z,50.90
2023-04-07T19:20:06.681Z,50.90
2023-04-07T19:22:34.562Z,50.90
2023-04-07T19:25:02.445Z,50.90
2023-04-07T19:27:31.234Z,50.90
2023-04-07T19:30:00.480Z,50.90
2023-04-07T19:32:28.444Z,50.90
2023-04-07T19:34:56.385Z,50.90
2023-04-07T19:37:24.257Z,50.90
2023-04-07T19:40:02.403Z,50.90
2023-04-07T19:42:30.636Z,50.90
2023-04-07T19:45:02.307Z,50.90
2023-04-07T19:47:30.520Z,50.90
2023-04-07T19:49:58.590Z,50.90
2023-04-07T19:52:26.559Z,50.90
2023-04-07T19:54:54.460Z,50.90
2023-04-07T19:57:22.638Z,50.90
2023-04-07T19:59:50.572Z,50.90
2023-04-07T20:02:20.047Z,50.90
2023-04-07T20:04:48.075Z,50.90
2023-04-07T20:07:16.127Z,50.90
2023-04-07T20:09:44.700Z,50.90
2023-04-07T20:12:12.590Z,50.90
2023-04-07T20:14:40.471Z,50.90
2023-04-07T20:17:08.494Z,50.90
2023-04-07T20:19:38.125Z,50.90
2023-04-07T20:22:06.511Z,50.90
2023-04-07T20:24:36.189Z,50.90
2023-04-07T20:27:04.125Z,50.90
2023-04-07T20:29:32.089Z,50.90
2023-04-07T20:31:59.944Z,50.90
2023-04-07T20:34:27.821Z,50.90
2023-04-07T20:36:57.057Z,50.90
2023-04-07T20:39:25.008Z,50.90
2023-04-07T20:41:52.843Z,50.90
2023-04-07T20:44:21.326Z,50.90
2023-04-07T20:46:49.186Z,51.00
2023-04-07T20:49:17.071Z,50.90
2023-04-07T20:51:44.933Z,50.90
2023-04-07T20:54:14.143Z,50.90
2023-04-07T20:56:43.017Z,50.90
2023-04-07T20:59:10.972Z,50.90
2023-04-07T21:01:38.985Z,50.90
2023-04-07T21:04:07.141Z,50.90
2023-04-07T21:06:35.097Z,50.90
2023-04-07T21:09:05.550Z,50.90
2023-04-07T21:11:34.887Z,51.00
2023-04-07T21:14:02.892Z,50.90
2023-04-07T21:16:31.534Z,50.90
2023-04-07T21:18:59.405Z,50.90
2023-04-07T21:21:27.622Z,50.90
2023-04-07T21:23:55.535Z,50.90
2023-04-07T21:26:23.451Z,50.90
2023-04-07T21:28:53.589Z,50.90
2023-04-07T21:31:22.561Z,50.90
2023-04-07T21:33:51.239Z,50.90
2023-04-07T21:36:19.276Z,50.90
2023-04-07T21:38:47.739Z,50.90
2023-04-07T21:41:16.000Z,50.90
2023-04-07T21:43:43.869Z,50.90
2023-04-07T21:46:14.343Z,50.90
2023-04-07T21:48:42.329Z,50.90
2023-04-07T21:51:10.243Z,50.90
2023-04-07T21:53:38.249Z,50.90
2023-04-07T21:56:08.393Z,50.90
2023-04-07T21:58:36.578Z,50.90
2023-04-07T22:01:04.862Z,50.90
2023-04-07T22:03:34.368Z,51.00
2023-04-07T22:06:02.473Z,50.90
2023-04-07T22:08:30.373Z,50.90
2023-04-07T22:10:58.633Z,50.90
2023-04-07T22:13:26.698Z,51.00
2023-04-07T22:15:54.631Z,50.90
2023-04-07T22:18:22.646Z,50.90
2023-04-07T22:20:51.901Z,51.00
2023-04-07T22:23:19.848Z,50.90
2023-04-07T22:25:50.075Z,50.90
2023-04-07T22:28:18.247Z,50.90
2023-04-07T22:30:46.442Z,50.90
2023-04-07T22:33:14.336Z,51.00
2023-04-07T22:35:42.258Z,50.90
2023-04-07T22:38:13.461Z,50.90
2023-04-07T22:40:41.883Z,51.00
2023-04-07T22:43:10.021Z,51.00
2023-04-07T22:45:37.949Z,50.90
2023-04-07T22:48:06.211Z,51.00
2023-04-07T22:50:34.204Z,51.00
2023-04-07T22:53:02.082Z,51.00
2023-04-07T22:55:31.329Z,51.00
2023-04-07T22:57:59.226Z,51.00
2023-04-07T23:00:28.055Z,51.00
2023-04-07T23:02:56.482Z,51.00
2023-04-07T23:05:24.480Z,51.00
2023-04-07T23:07:53.399Z,50.90
2023-04-07T23:10:21.294Z,51.00
2023-04-07T23:12:53.668Z,51.00
2023-04-07T23:15:21.620Z,51.00
2023-04-07T23:17:49.525Z,51.00
2023-04-07T23:20:17.644Z,51.00
2023-04-07T23:22:45.671Z,51.00
2023-04-07T23:25:13.578Z,51.00
2023-04-07T23:27:41.463Z,51.00
2023-04-07T23:30:12.014Z,51.10
2023-04-07T23:32:39.921Z,51.00
2023-04-07T23:35:08.382Z,51.00
2023-04-07T23:37:36.430Z,51.00
2023-04-07T23:40:04.449Z,51.00
2023-04-07T23:42:32.309Z,51.10
2023-04-07T23:45:00.294Z,51.00
2023-04-07T23:47:29.524Z,51.10
2023-04-07T23:49:57.449Z,51.00
2023-04-07T23:52:25.757Z,51.10
2023-04-07T23:54:53.624Z,51.10
2023-04-07T23:57:21.483Z,51.00
2023-04-07T23:59:49.365Z,51.10
